Hauptseite
METAR-TAF:

METAR-TAF

Flughäfen :

Flughafen Friedrichshafen

Friedrichshafen, Deutschland

Breite: 47-40N, Länge: 009-31E, Höhe: 416 m

Beobachtung

Neuester Wetterbericht von vor 20 Minuten, um 00:50 UTC
Wind 7 kt aus Südwest
Temperatur 6°C
Luftfeuchtigkeit 87%
Luftdruck 1018 hPa
Sichtweite 10 km oder mehr

METAR: EDNY 050050Z AUTO 23007KT 9999 // BKN031/// BKN065/// OVC076/// 06/04 Q1018

Zeit: 02:10 (01:10 UTC)

Prognose

Neuester Wetterbericht von vor 2 Stunden und 10 Minuten, um 23:00 UTC
Gültige Prognose vom 05 um 00 UTC bis 05 um 24 UTC
Wind 5 kt aus West
Sichtweite 10 km oder mehr
Durchbrochene Bewölkung in der Höhe von 2500 ft
Zeitweise
vom 05 um 00 UTC bis 05 um 07 UTC
Durchbrochene Bewölkung in der Höhe von 1000 ft
Übergehend zu
vom 05 um 10 UTC bis 05 um 12 UTC
Wind 7 kt aus Nord/Nordost

TAF: EDNY 042300Z 0500/0524 26005KT 9999 BKN025 TEMPO 0500/0507 BKN010 BECMG 0510/0512 02007KT

Wetterbeobachtungen und Prognosen von mehr als 4000 Flughäfen (METAR und TAF Bericht).

Die verfügbaren Stationen werden durch gelbe und rote Markierungen auf der Karte dargestellt.

Führen Sie die Maus auf sie, um den Namen der Station zu sehen.

Darauf klicken, um die Beobachtung von Wetterbeobachtungen und Prognosen zu sehen.

Um die Karte zu ändern : klicken Sie auf den grünen Tasten mit einem schwarzen Kreuz Zum Vergrößern, auf den grünen Button mit einem Gedankenstrich zu verkleinern, oder auf die grünen Pfeile für benachbarte Karten.


METAR-TAF: